nws-alerts: Checking more than four warning/county codes can delay the loading of your pages. You should use a cron job to get the data.
EllijayWeather Station Historical Data
Daily Summary for July 10, 2019 Units:  English    Metric   Both
Daily Weekly Monthly Yearly Custom
  High: Low: Average:
Temperature: 88.3 °F 71.8 °F 79.5 °F
Dew Point: 76.8 °F 70.3 °F 73.3 °F
Humidity: 96% 62% 82%
Wind Speed: 4mph 0mph 0mph
Wind Gust: 5mph - -
Wind- - SE
Pressure: 30.06 in 29.93 in -
Precipitation: 0 in    
Historical Graphs
 
 
Tabular Data for July 10, 2019
Time Temperature Dew Point Pressure Wind Wind Speed Wind Gust Humidity Rainfall Rate (Hourly) solar
00:04 78.1 °F 73.6 °F 30.03 in Calm     86% 0 in meteobridge W/m2
00:09 78.1 °F 73.6 °F 30.03 in Calm   1 mph 86% 0 in meteobridge W/m2
00:14 78.1 °F 73.6 °F 30.03 in Calm     86% 0 in meteobridge W/m2
00:19 78.1 °F 73.6 °F 30.03 in Calm     86% 0 in meteobridge W/m2
00:24 78.1 °F 73.6 °F 30.03 in Calm     86% 0 in meteobridge W/m2
00:29 78.1 °F 73.6 °F 30.03 in Calm     86% 0 in meteobridge W/m2
00:34 78.1 °F 73.6 °F 30.03 in Calm     86% 0 in meteobridge W/m2
00:39 78.1 °F 73.6 °F 30.02 in Calm     86% 0 in meteobridge W/m2
00:44 77.7 °F 73.2 °F 30.02 in Calm     86% 0 in meteobridge W/m2
00:49 77.7 °F 73.6 °F 30.02 in Calm     87% 0 in meteobridge W/m2
00:54 77.5 °F 73.4 °F 30.02 in Calm     87% 0 in meteobridge W/m2
00:59 77.4 °F 73.6 °F 30.02 in Calm     88% 0 in meteobridge W/m2
01:04 77.4 °F 73.2 °F 30.02 in Calm     87% 0 in meteobridge W/m2
01:09 77.2 °F 73.4 °F 30.02 in Calm     88% 0 in meteobridge W/m2
01:14 76.8 °F 73 °F 30.01 in Calm     88% 0 in meteobridge W/m2
01:19 76.8 °F 73.4 °F 30.01 in Calm     89% 0 in meteobridge W/m2
01:24 76.6 °F 73.2 °F 30.01 in Calm     89% 0 in meteobridge W/m2
01:29 76.3 °F 72.9 °F 30.01 in Calm     89% 0 in meteobridge W/m2
01:34 76.1 °F 72.9 °F 30.01 in Calm     90% 0 in meteobridge W/m2
01:39 75.7 °F 72.9 °F 30.01 in Calm     91% 0 in meteobridge W/m2
01:44 75.7 °F 72.9 °F 30.01 in Calm     91% 0 in meteobridge W/m2
01:49 75.6 °F 72.7 °F 30.01 in Calm     91% 0 in meteobridge W/m2
01:54 75.4 °F 72.5 °F 30.01 in Calm     91% 0 in meteobridge W/m2
01:59 75.4 °F 72.5 °F 30.01 in Calm     91% 0 in meteobridge W/m2
02:04 75.2 °F 72.3 °F 30.01 in Calm     91% 0 in meteobridge W/m2
02:09 75 °F 72.5 °F 30.00 in Calm     92% 0 in meteobridge W/m2
02:14 74.8 °F 72.3 °F 30.00 in Calm     92% 0 in meteobridge W/m2
02:19 74.7 °F 72.1 °F 30.00 in Calm     92% 0 in meteobridge W/m2
02:24 74.5 °F 72 °F 30.00 in Calm     92% 0 in meteobridge W/m2
02:29 74.5 °F 72.3 °F 30.00 in Calm     93% 0 in meteobridge W/m2
02:34 74.3 °F 72.1 °F 30.00 in Calm     93% 0 in meteobridge W/m2
02:39 74.1 °F 72 °F 29.99 in Calm     93% 0 in meteobridge W/m2
02:44 74.1 °F 72 °F 30.00 in Calm     93% 0 in meteobridge W/m2
02:49 73.9 °F 71.8 °F 30.00 in Calm     93% 0 in meteobridge W/m2
02:54 73.9 °F 71.8 °F 29.99 in Calm     93% 0 in meteobridge W/m2
02:59 73.9 °F 71.8 °F 29.99 in Calm     93% 0 in meteobridge W/m2
03:04 73.9 °F 71.8 °F 29.99 in Calm     93% 0 in meteobridge W/m2
03:09 73.9 °F 71.8 °F 29.99 in Calm     93% 0 in meteobridge W/m2
03:14 73.8 °F 71.6 °F 29.99 in Calm     93% 0 in meteobridge W/m2
03:19 73.8 °F 72 °F 29.98 in Calm     94% 0 in meteobridge W/m2
03:24 73.6 °F 71.8 °F 29.98 in Calm     94% 0 in meteobridge W/m2
03:29 73.6 °F 71.8 °F 29.99 in Calm     94% 0 in meteobridge W/m2
03:34 73.6 °F 71.8 °F 29.98 in Calm     94% 0 in meteobridge W/m2
03:39 73.4 °F 71.6 °F 29.98 in Calm     94% 0 in meteobridge W/m2
03:44 73.4 °F 71.6 °F 29.98 in Calm     94% 0 in meteobridge W/m2
03:49 73.4 °F 71.6 °F 29.98 in Calm     94% 0 in meteobridge W/m2
03:54 73.4 °F 71.6 °F 29.98 in Calm     94% 0 in meteobridge W/m2
03:58 73.2 °F 71.4 °F 29.99 in Calm     94% 0 in meteobridge W/m2
04:04 73.2 °F 71.4 °F 29.99 in Calm     94% 0 in meteobridge W/m2
04:09 73.2 °F 71.4 °F 29.99 in Calm     94% 0 in meteobridge W/m2
04:14 73.2 °F 71.4 °F 29.99 in Calm     94% 0 in meteobridge W/m2
04:19 73 °F 71.2 °F 29.99 in Calm     94% 0 in meteobridge W/m2
04:24 73 °F 71.2 °F 29.99 in Calm     94% 0 in meteobridge W/m2
04:29 73 °F 71.2 °F 29.99 in Calm     94% 0 in meteobridge W/m2
04:34 73 °F 71.2 °F 29.99 in Calm     94% 0 in meteobridge W/m2
04:39 72.9 °F 71.1 °F 30.00 in Calm     94% 0 in meteobridge W/m2
04:44 72.7 °F 70.9 °F 30.00 in Calm     94% 0 in meteobridge W/m2
04:49 72.7 °F 70.9 °F 30.00 in Calm     94% 0 in meteobridge W/m2
04:54 72.5 °F 70.7 °F 30.00 in Calm     94% 0 in meteobridge W/m2
04:59 72.3 °F 70.9 °F 30.00 in Calm     95% 0 in meteobridge W/m2
05:04 72.3 °F 70.9 °F 30.00 in Calm     95% 0 in meteobridge W/m2
05:09 72.3 °F 70.9 °F 30.01 in Calm     95% 0 in meteobridge W/m2
05:14 72.1 °F 70.7 °F 30.01 in Calm     95% 0 in meteobridge W/m2
05:19 72.1 °F 70.7 °F 30.01 in Calm     95% 0 in meteobridge W/m2
05:24 72.1 °F 70.7 °F 30.01 in Calm     95% 0 in meteobridge W/m2
05:29 72 °F 70.5 °F 30.01 in Calm     95% 0 in meteobridge W/m2
05:34 72 °F 70.5 °F 30.01 in Calm     95% 0 in meteobridge W/m2
05:39 71.8 °F 70.3 °F 30.01 in Calm     95% 0 in meteobridge W/m2
05:44 71.8 °F 70.3 °F 30.01 in Calm     95% 0 in meteobridge W/m2
05:49 71.8 °F 70.5 °F 30.02 in Calm     96% 0 in meteobridge W/m2
05:54 71.8 °F 70.5 °F 30.02 in Calm     96% 0 in meteobridge W/m2
05:59 71.8 °F 70.5 °F 30.02 in Calm     96% 0 in meteobridge W/m2
06:04 71.8 °F 70.5 °F 30.02 in Calm     96% 0 in meteobridge W/m2
06:09 72 °F 70.7 °F 30.02 in Calm     96% 0 in meteobridge W/m2
06:14 72.1 °F 70.9 °F 30.02 in Calm     96% 0 in meteobridge W/m2
06:19 72.1 °F 70.9 °F 30.02 in Calm     96% 0 in meteobridge W/m2
06:24 72.1 °F 70.7 °F 30.03 in Calm     95% 0 in meteobridge W/m2
06:29 72.5 °F 70.7 °F 30.03 in Calm     94% 0 in meteobridge W/m2
06:34 72.7 °F 70.9 °F 30.03 in Calm     94% 0 in meteobridge W/m2
06:39 72.9 °F 71.1 °F 30.03 in Calm     94% 0 in meteobridge W/m2
06:44 73 °F 70.9 °F 30.03 in Calm     93% 0 in meteobridge W/m2
06:49 73 °F 70.9 °F 30.03 in Calm     93% 0 in meteobridge W/m2
06:54 73.2 °F 71.1 °F 30.03 in Calm     93% 0 in meteobridge W/m2
06:59 73.4 °F 71.2 °F 30.03 in Calm     93% 0 in meteobridge W/m2
07:04 73.6 °F 71.4 °F 30.03 in Calm     93% 0 in meteobridge W/m2
07:09 73.8 °F 71.2 °F 30.03 in Calm     92% 0 in meteobridge W/m2
07:14 73.8 °F 71.2 °F 30.03 in Calm     92% 0 in meteobridge W/m2
07:19 73.9 °F 71.4 °F 30.04 in Calm     92% 0 in meteobridge W/m2
07:24 73.9 °F 71.4 °F 30.04 in Calm     92% 0 in meteobridge W/m2
07:29 73.9 °F 71.4 °F 30.04 in Calm     92% 0 in meteobridge W/m2
07:34 74.1 °F 71.6 °F 30.04 in Calm     92% 0 in meteobridge W/m2
07:39 74.3 °F 71.4 °F 30.05 in Calm   2 mph 91% 0 in meteobridge W/m2
07:44 74.5 °F 71.6 °F 30.05 in Calm     91% 0 in meteobridge W/m2
07:49 74.5 °F 71.6 °F 30.04 in Calm     91% 0 in meteobridge W/m2
07:54 74.5 °F 71.6 °F 30.05 in Calm     91% 0 in meteobridge W/m2
07:59 74.7 °F 71.8 °F 30.05 in Calm     91% 0 in meteobridge W/m2
08:04 74.7 °F 71.8 °F 30.05 in Calm     91% 0 in meteobridge W/m2
08:09 74.8 °F 72 °F 30.05 in Calm     91% 0 in meteobridge W/m2
08:14 75 °F 72.1 °F 30.05 in Calm     91% 0 in meteobridge W/m2
08:19 75 °F 72 °F 30.05 in Calm     90% 0 in meteobridge W/m2
08:24 75.2 °F 72.1 °F 30.05 in Calm     90% 0 in meteobridge W/m2
08:29 75.2 °F 71.8 °F 30.06 in Calm     89% 0 in meteobridge W/m2
08:34 75.4 °F 72 °F 30.06 in Calm     89% 0 in meteobridge W/m2
08:39 75.6 °F 72.1 °F 30.06 in Calm     89% 0 in meteobridge W/m2
08:44 75.7 °F 72.3 °F 30.06 in Calm   1 mph 89% 0 in meteobridge W/m2
08:49 75.9 °F 72.1 °F 30.06 in Calm     88% 0 in meteobridge W/m2
08:54 75.9 °F 72.5 °F 30.06 in Calm     89% 0 in meteobridge W/m2
08:59 76.1 °F 72.3 °F 30.06 in Calm     88% 0 in meteobridge W/m2
09:04 76.1 °F 72.3 °F 30.06 in Calm   1 mph 88% 0 in meteobridge W/m2
09:09 76.1 °F 72 °F 30.06 in Calm   1 mph 87% 0 in meteobridge W/m2
09:14 76.3 °F 72.5 °F 30.06 in Calm   1 mph 88% 0 in meteobridge W/m2
09:19 76.5 °F 72.3 °F 30.06 in Calm   1 mph 87% 0 in meteobridge W/m2
09:24 76.5 °F 72.3 °F 30.06 in Calm     87% 0 in meteobridge W/m2
09:29 76.6 °F 72.5 °F 30.06 in Calm   2 mph 87% 0 in meteobridge W/m2
09:34 76.8 °F 72.7 °F 30.05 in Calm     87% 0 in meteobridge W/m2
09:39 77.2 °F 72.7 °F 30.05 in Calm   1 mph 86% 0 in meteobridge W/m2
09:44 77.5 °F 73 °F 30.05 in Calm   1 mph 86% 0 in meteobridge W/m2
09:49 78.1 °F 73.2 °F 30.05 in Calm   1 mph 85% 0 in meteobridge W/m2
09:54 78.4 °F 72.9 °F 30.05 in ESE 0.9 mph 1 mph 83% 0 in meteobridge W/m2
09:59 78.6 °F 73.4 °F 30.05 in Calm     84% 0 in meteobridge W/m2
10:04 78.6 °F 72.7 °F 30.06 in Calm   1 mph 82% 0 in meteobridge W/m2
10:09 78.4 °F 72.5 °F 30.06 in Calm   2 mph 82% 0 in meteobridge W/m2
10:14 78.6 °F 72.7 °F 30.06 in Calm   2 mph 82% 0 in meteobridge W/m2
10:19 78.4 °F 73.2 °F 30.05 in Calm     84% 0 in meteobridge W/m2
10:24 78.4 °F 72.9 °F 30.05 in Calm     83% 0 in meteobridge W/m2
10:29 78.4 °F 72.9 °F 30.05 in Calm     83% 0 in meteobridge W/m2
10:34 78.6 °F 73.4 °F 30.05 in ESE 4 mph 5 mph 84% 0 in meteobridge W/m2
10:39 79 °F 73 °F 30.05 in Calm     82% 0 in meteobridge W/m2
10:44 79.3 °F 73.4 °F 30.05 in Calm     82% 0 in meteobridge W/m2
10:49 79.3 °F 73 °F 30.05 in Calm     81% 0 in meteobridge W/m2
10:54 79.5 °F 73.6 °F 30.05 in Calm     82% 0 in meteobridge W/m2
10:59 79.5 °F 73.6 °F 30.05 in Calm   2 mph 82% 0 in meteobridge W/m2
11:04 80.1 °F 73 °F 30.05 in Calm   4 mph 79% 0 in meteobridge W/m2
11:09 80.4 °F 73.8 °F 30.05 in ESE 2 mph 2 mph 80% 0 in meteobridge W/m2
11:14 81 °F 73.4 °F 30.05 in Calm     78% 0 in meteobridge W/m2
11:19 81.1 °F 73.6 °F 30.05 in Calm   1 mph 78% 0 in meteobridge W/m2
11:24 81.9 °F 73.6 °F 30.05 in Calm     76% 0 in meteobridge W/m2
11:29 82.2 °F 73.9 °F 30.05 in Calm   1 mph 76% 0 in meteobridge W/m2
11:34 82.2 °F 73.6 °F 30.05 in Calm     75% 0 in meteobridge W/m2
11:39 81.9 °F 73.6 °F 30.04 in Calm     76% 0 in meteobridge W/m2
11:44 81.9 °F 73.9 °F 30.04 in Calm     77% 0 in meteobridge W/m2
11:49 81.9 °F 73.9 °F 30.04 in Calm     77% 0 in meteobridge W/m2
11:54 82.6 °F 73.8 °F 30.04 in Calm     75% 0 in meteobridge W/m2
11:59 83.5 °F 73.6 °F 30.04 in Calm   1 mph 72% 0 in meteobridge W/m2
12:04 83.8 °F 73.8 °F 30.04 in ESE 0.9 mph 2 mph 72% 0 in meteobridge W/m2
12:09 83.8 °F 74.7 °F 30.04 in Calm     74% 0 in meteobridge W/m2
12:14 84.2 °F 74.7 °F 30.04 in Calm   2 mph 73% 0 in meteobridge W/m2
12:19 84.7 °F 73.9 °F 30.03 in Calm     70% 0 in meteobridge W/m2
12:24 85.1 °F 74.7 °F 30.03 in Calm     71% 0 in meteobridge W/m2
12:29 85.5 °F 74.5 °F 30.04 in Calm     70% 0 in meteobridge W/m2
12:34 85.6 °F 73.9 °F 30.04 in Calm     68% 0 in meteobridge W/m2
12:39 85.6 °F 73.9 °F 30.04 in Calm     68% 0 in meteobridge W/m2
12:44 85.5 °F 74.1 °F 30.03 in Calm     69% 0 in meteobridge W/m2
12:49 85.3 °F 74.3 °F 30.04 in Calm     70% 0 in meteobridge W/m2
12:54 85.1 °F 74.7 °F 30.03 in Calm     71% 0 in meteobridge W/m2
12:59 84.7 °F 74.7 °F 30.03 in Calm     72% 0 in meteobridge W/m2
13:04 84.6 °F 75.4 °F 30.03 in Calm   1 mph 74% 0 in meteobridge W/m2
13:09 84.9 °F 74.1 °F 30.03 in Calm   1 mph 70% 0 in meteobridge W/m2
13:14 85.6 °F 73.9 °F 30.03 in Calm   1 mph 68% 0 in meteobridge W/m2
13:19 85.8 °F 73.6 °F 30.03 in Calm     67% 0 in meteobridge W/m2
13:24 86.4 °F 73.2 °F 30.03 in Calm   2 mph 65% 0 in meteobridge W/m2
13:29 86.7 °F 73 °F 30.03 in Calm   3 mph 64% 0 in meteobridge W/m2
13:34 87.1 °F 73.9 °F 30.03 in Calm   1 mph 65% 0 in meteobridge W/m2
13:39 87.4 °F 75.2 °F 30.03 in Calm   1 mph 67% 0 in meteobridge W/m2
13:44 87.3 °F 74.1 °F 30.03 in Calm     65% 0 in meteobridge W/m2
13:49 87.1 °F 74.3 °F 30.03 in Calm     66% 0 in meteobridge W/m2
13:54 86.9 °F 73.8 °F 30.02 in Calm     65% 0 in meteobridge W/m2
13:59 86.5 °F 75.2 °F 30.02 in Calm     69% 0 in meteobridge W/m2
14:04 86 °F 75.6 °F 30.02 in Calm     71% 0 in meteobridge W/m2
14:09 85.3 °F 74.8 °F 30.02 in Calm     71% 0 in meteobridge W/m2
14:14 84.9 °F 74.8 °F 30.02 in Calm     72% 0 in meteobridge W/m2
14:19 84.6 °F 75.4 °F 30.02 in Calm     74% 0 in meteobridge W/m2
14:24 84.4 °F 75.6 °F 30.02 in Calm   3 mph 75% 0 in meteobridge W/m2
14:29 85.3 °F 74.8 °F 30.02 in Calm   2 mph 71% 0 in meteobridge W/m2
14:34 85.8 °F 73.9 °F 30.01 in Calm     68% 0 in meteobridge W/m2
14:39 86.4 °F 74.1 °F 30.01 in Calm     67% 0 in meteobridge W/m2
14:44 86.9 °F 75 °F 30.01 in Calm     68% 0 in meteobridge W/m2
14:49 87.1 °F 75.7 °F 30.01 in Calm     69% 0 in meteobridge W/m2
14:54 87.3 °F 75 °F 30.01 in Calm     67% 0 in meteobridge W/m2
14:59 86.7 °F 74.8 °F 30.01 in Calm     68% 0 in meteobridge W/m2
15:04 86.5 °F 75.2 °F 30.00 in Calm     69% 0 in meteobridge W/m2
15:09 86.7 °F 74.5 °F 30.00 in Calm     67% 0 in meteobridge W/m2
15:14 86.9 °F 74.7 °F 30.00 in Calm     67% 0 in meteobridge W/m2
15:19 87.1 °F 73.9 °F 29.99 in NW 2 mph 3 mph 65% 0 in meteobridge W/m2
15:24 87.6 °F 74.3 °F 29.99 in Calm     65% 0 in meteobridge W/m2
15:29 88.2 °F 74.8 °F 29.99 in Calm   1 mph 65% 0 in meteobridge W/m2
15:34 88.3 °F 73.6 °F 29.99 in Calm   1 mph 62% 0 in meteobridge W/m2
15:39 88.2 °F 74.5 °F 29.99 in Calm   1 mph 64% 0 in meteobridge W/m2
15:44 87.4 °F 74.3 °F 29.99 in Calm     65% 0 in meteobridge W/m2
15:49 87.1 °F 74.8 °F 29.98 in Calm     67% 0 in meteobridge W/m2
15:54 86.7 °F 75.4 °F 29.98 in Calm     69% 0 in meteobridge W/m2
15:59 86.7 °F 75.4 °F 29.98 in Calm     69% 0 in meteobridge W/m2
16:04 87.1 °F 76.1 °F 29.98 in North 0.9 mph 1 mph 70% 0 in meteobridge W/m2
16:09 86.7 °F 76.1 °F 29.98 in Calm     71% 0 in meteobridge W/m2
16:14 86.9 °F 76.8 °F 29.97 in Calm     72% 0 in meteobridge W/m2
16:19 86.7 °F 75.4 °F 29.97 in Calm     69% 0 in meteobridge W/m2
16:24 86.5 °F 74.7 °F 29.97 in Calm     68% 0 in meteobridge W/m2
16:29 86.5 °F 75.6 °F 29.97 in Calm     70% 0 in meteobridge W/m2
16:34 86.2 °F 75.7 °F 29.96 in Calm     71% 0 in meteobridge W/m2
16:39 85.6 °F 74.7 °F 29.96 in Calm     70% 0 in meteobridge W/m2
16:44 85.3 °F 75.2 °F 29.96 in Calm     72% 0 in meteobridge W/m2
16:49 85.1 °F 75.4 °F 29.95 in Calm     73% 0 in meteobridge W/m2
16:54 84.9 °F 74.8 °F 29.95 in Calm     72% 0 in meteobridge W/m2
16:59 84.9 °F 75.2 °F 29.95 in Calm     73% 0 in meteobridge W/m2
17:04 85.1 °F 75.9 °F 29.95 in Calm     74% 0 in meteobridge W/m2
17:09 85.5 °F 75 °F 29.95 in Calm     71% 0 in meteobridge W/m2
17:14 85.8 °F 76.1 °F 29.95 in Calm     73% 0 in meteobridge W/m2
17:19 86.5 °F 75.2 °F 29.95 in Calm   1 mph 69% 0 in meteobridge W/m2
17:24 87.1 °F 75.7 °F 29.94 in Calm     69% 0 in meteobridge W/m2
17:29 87.3 °F 74.5 °F 29.93 in Calm     66% 0 in meteobridge W/m2
17:34 87.4 °F 74.7 °F 29.93 in Calm     66% 0 in meteobridge W/m2
17:39 87.3 °F 73.6 °F 29.94 in Calm     64% 0 in meteobridge W/m2
17:44 87.3 °F 73.6 °F 29.94 in Calm     64% 0 in meteobridge W/m2
17:49 87.1 °F 72.9 °F 29.93 in Calm     63% 0 in meteobridge W/m2
17:54 86.9 °F 73.8 °F 29.93 in Calm     65% 0 in meteobridge W/m2
17:59 86.5 °F 75.9 °F 29.93 in Calm     71% 0 in meteobridge W/m2
18:04 86.2 °F 74.8 °F 29.93 in Calm     69% 0 in meteobridge W/m2
18:09 86 °F 74.1 °F 29.93 in Calm     68% 0 in meteobridge W/m2
18:14 86 °F 74.7 °F 29.93 in Calm     69% 0 in meteobridge W/m2
18:19 85.8 °F 74.5 °F 29.93 in Calm     69% 0 in meteobridge W/m2
18:24 85.6 °F 73.4 °F 29.93 in Calm     67% 0 in meteobridge W/m2
18:29 85.8 °F 74.5 °F 29.93 in Calm     69% 0 in meteobridge W/m2
18:34 85.6 °F 73.4 °F 29.93 in Calm     67% 0 in meteobridge W/m2
18:39 85.6 °F 73.9 °F 29.93 in Calm     68% 0 in meteobridge W/m2
18:44 85.6 °F 73.9 °F 29.93 in Calm   1 mph 68% 0 in meteobridge W/m2
18:49 85.6 °F 73 °F 29.93 in Calm   1 mph 66% 0 in meteobridge W/m2
18:54 85.8 °F 73.6 °F 29.94 in Calm     67% 0 in meteobridge W/m2
18:59 85.8 °F 73.2 °F 29.94 in Calm     66% 0 in meteobridge W/m2
19:04 86.2 °F 73.9 °F 29.94 in Calm     67% 0 in meteobridge W/m2
19:09 85.8 °F 73.9 °F 29.94 in Calm     68% 0 in meteobridge W/m2
19:14 85.6 °F 74.3 °F 29.94 in Calm     69% 0 in meteobridge W/m2
19:19 85.6 °F 74.3 °F 29.95 in Calm     69% 0 in meteobridge W/m2
19:24 85.5 °F 74.1 °F 29.95 in Calm     69% 0 in meteobridge W/m2
19:29 85.3 °F 74.3 °F 29.95 in Calm     70% 0 in meteobridge W/m2
19:34 84.9 °F 74.1 °F 29.95 in Calm     70% 0 in meteobridge W/m2
19:39 84.7 °F 75.2 °F 29.95 in Calm     73% 0 in meteobridge W/m2
19:44 84.2 °F 75.4 °F 29.96 in Calm     75% 0 in meteobridge W/m2
19:49 83.8 °F 75 °F 29.96 in Calm     75% 0 in meteobridge W/m2
19:54 83.5 °F 75 °F 29.96 in Calm     76% 0 in meteobridge W/m2
19:59 83.1 °F 75.2 °F 29.96 in Calm     77% 0 in meteobridge W/m2
20:04 82.8 °F 75.2 °F 29.96 in Calm     78% 0 in meteobridge W/m2
20:09 82.6 °F 75.4 °F 29.96 in Calm     79% 0 in meteobridge W/m2
20:14 82.2 °F 75.7 °F 29.95 in Calm     81% 0 in meteobridge W/m2
20:19 81.9 °F 75.7 °F 29.96 in Calm     82% 0 in meteobridge W/m2
20:24 81.7 °F 75.6 °F 29.96 in Calm     82% 0 in meteobridge W/m2
20:29 81.3 °F 75.4 °F 29.96 in Calm     82% 0 in meteobridge W/m2
20:34 81.1 °F 75.6 °F 29.96 in Calm     83% 0 in meteobridge W/m2
20:39 81 °F 75.4 °F 29.96 in Calm     83% 0 in meteobridge W/m2
20:44 80.8 °F 75.6 °F 29.96 in Calm     84% 0 in meteobridge W/m2
20:49 80.6 °F 75.4 °F 29.96 in Calm     84% 0 in meteobridge W/m2
20:54 80.2 °F 75 °F 29.96 in Calm     84% 0 in meteobridge W/m2
20:59 80.1 °F 75.2 °F 29.96 in Calm     85% 0 in meteobridge W/m2
21:04 79.9 °F 75.4 °F 29.96 in Calm     86% 0 in meteobridge W/m2
21:09 79.5 °F 75 °F 29.96 in Calm     86% 0 in meteobridge W/m2
21:14 79.3 °F 75.2 °F 29.96 in Calm     87% 0 in meteobridge W/m2
21:19 79.2 °F 75 °F 29.97 in Calm     87% 0 in meteobridge W/m2
21:24 79.2 °F 75 °F 29.97 in Calm     87% 0 in meteobridge W/m2
21:29 79 °F 74.8 °F 29.97 in Calm     87% 0 in meteobridge W/m2
21:34 78.6 °F 74.8 °F 29.97 in Calm     88% 0 in meteobridge W/m2
21:39 78.4 °F 74.7 °F 29.96 in Calm     88% 0 in meteobridge W/m2
21:44 78.3 °F 74.7 °F 29.96 in Calm     89% 0 in meteobridge W/m2
21:49 78.1 °F 74.5 °F 29.97 in Calm     89% 0 in meteobridge W/m2
21:54 78.1 °F 74.5 °F 29.97 in Calm     89% 0 in meteobridge W/m2
21:59 77.7 °F 74.3 °F 29.97 in Calm     89% 0 in meteobridge W/m2
22:04 77.5 °F 74.1 °F 29.97 in Calm     89% 0 in meteobridge W/m2
22:09 77.5 °F 74.3 °F 29.97 in Calm     90% 0 in meteobridge W/m2
22:14 77.5 °F 74.3 °F 29.97 in Calm     90% 0 in meteobridge W/m2
22:19 77.4 °F 74.1 °F 29.98 in Calm     90% 0 in meteobridge W/m2
22:24 77.2 °F 73.9 °F 29.98 in Calm     90% 0 in meteobridge W/m2
22:29 77 °F 73.8 °F 29.98 in Calm     90% 0 in meteobridge W/m2
22:34 76.8 °F 73.6 °F 29.98 in Calm     90% 0 in meteobridge W/m2
22:39 76.8 °F 73.9 °F 29.98 in Calm     91% 0 in meteobridge W/m2
22:44 76.6 °F 73.8 °F 29.98 in Calm     91% 0 in meteobridge W/m2
22:49 76.6 °F 73.8 °F 29.98 in Calm     91% 0 in meteobridge W/m2
22:54 76.6 °F 73.8 °F 29.98 in Calm     91% 0 in meteobridge W/m2
22:59 76.5 °F 73.6 °F 29.98 in Calm     91% 0 in meteobridge W/m2
23:04 76.5 °F 73.6 °F 29.98 in Calm     91% 0 in meteobridge W/m2
23:09 76.3 °F 73.4 °F 29.98 in Calm     91% 0 in meteobridge W/m2
23:14 76.3 °F 73.4 °F 29.98 in Calm     91% 0 in meteobridge W/m2
23:19 76.1 °F 73.6 °F 29.98 in Calm     92% 0 in meteobridge W/m2
23:24 75.9 °F 73.4 °F 29.98 in Calm     92% 0 in meteobridge W/m2
23:29 75.7 °F 73.2 °F 29.98 in Calm     92% 0 in meteobridge W/m2
23:34 75.7 °F 73.2 °F 29.98 in Calm     92% 0 in meteobridge W/m2
23:39 75.7 °F 73.2 °F 29.98 in Calm     92% 0 in meteobridge W/m2
23:44 75.6 °F 73 °F 29.98 in Calm     92% 0 in meteobridge W/m2
23:49 75.6 °F 73.4 °F 29.98 in Calm     93% 0 in meteobridge W/m2
23:54 75.6 °F 73.4 °F 29.98 in Calm     93% 0 in meteobridge W/m2
23:59 75.4 °F 73.2 °F 29.98 in Calm     93% 0 in meteobridge W/m2
EllijayWeather
Compliments of Weather Underground - 2.5 mb